Enter the Airport ICAO Code

Search by Airport or City

Current Weather

SKCL | Alfonso Bonilla Aragón International Airport

Cali, Colombia

Last Update 5 Minutes Ago

Mostly Cloudy Sky

Temperature of 23 ºC

Light Winds from Variable Directions

Temperature

23 ºC

Dew Point Temperature

20 ºC

Relative Humidity

83.32 %

Wind Direction

Variable

Wind Velocity

4 km/h (02 kt)

Gusts

None

Visibility

Greater than 10 Kilometers

Sea Level Pressure

1018 hPa (Hectopascals)

Layers of Clouds

5% to 30% of Sky Covered from 610 mts (2000 ft) Above Ground Level.

60% to 90% of Sky Covered from 3658 mts (12000 ft) Above Ground Level.

METAR SKCL 191300Z VRB02KT 9999 FEW020 BKN120 23/20 Q1018 NOSIG RMK A3007

Weather Forecast

SKCL | Alfonso Bonilla Aragón International Airport

Cali, Colombia

Forecast valid for the next 23 Hours

From now on it is expected:

Mostly Cloudy Sky

Light Winds from Variable Directions

In 6 to 7 hours it is expected the begining of:

Moderate Winds from NorthWest

In 10 hours it is expected the begining of 5 hours with intermittent periods of:

Drizzle

In 16 to 17 hours it is expected the begining of:

Light Winds from NorthEast

In 22 to 23 hours it is expected the begining of:

Mist

Maximum Temperature

No Data

Minimum Temperature

No Data

TAF SKCL 191030Z 1912/2012 VRB02KT 9999 SCT020 BKN100 BECMG 1919/1920 31011KT TEMPO 1923/2004 DZ SCT020TCU BKN080 BECMG 2005/2006 04003KT BECMG 2011/2012 5000 BR TX31/1920Z TN19/2010Z